Řízení letového provozu České republiky
Letiste: LKKV Aktualizace: 19.09.2018 18:30:06  UTC
 METAR LKKV 19.09. 18:30 ...
METAR LKKV 191830Z VRB02KT CAVOK 18/11 Q1022 RMK REG QNH 1018=
 TAF LKKV 19.09. 17:00 ...
TAF LKKV 191700Z 1918/2100 VRB02KT CAVOK      TEMPO 2002/2006 5000 BR MIFG NSC      BECMG 2008/2011 31006KT      BECMG 2017/2019 VRB02KT=